KALM/ALM METAR and TAF weather

Enter ICAO airport designator
Station Type Date Time Source
KALM METAR 2020/02/26 09:15 UTC NOAA

KALM 260915Z AUTO 14010KT 10SM CLR M02/M10 A3044 RMK AO2


Station Type Date Time Source
KALM Decoded METAR 2020/02/26 09:15 UTC NOAA

Alamogordo-White, NM, United States (KALM) 32-50N 105-59W
Feb 26, 2020 - 04:15 AM EST / 2020.02.26 0915 UTC
Wind: from the SE (140 degrees) at 12 MPH (10 KT):0
Visibility: 10 mile(s):0
Sky conditions: clear
Temperature: 28 F (-2 C)
Windchill: 17 F (-8 C):1
Dew Point: 14 F (-10 C)
Relative Humidity: 54%
Pressure (altimeter): 30.44 in. Hg (1030 hPa)
ob: KALM 260915Z AUTO 14010KT 10SM CLR M02/M10 A3044 RMK AO2
cycle: 9

Station Type Date Time Source
KALM TAF UTC NOAA

Error!

Example: see airport list